Pagrindinis puslapis
METAR-TAF:

METAR-TAF

Oro uostai :

Cachimbo, Para, Brazilija

platuma: 09-20S, ilguma: 054-57W, Aukštis: 536 m

Dabartinis oras

Ataskaita buvo paskelbta 5 valandos ir 22 minutes, ne 18:00 UTC
Vėjas 8 kt iš Šiaurės/Šiaurės Vakarų, svyruoja nuo Šiaurės Vakarų ir Šiaurės/Šiaurės Rytų
Temperatūra 25°C
Drėgmė 74%
Slėgis 1012 hPa
Matomumas 10 km arba daugiau
Su prošvaistėmis ne aukštis 2000 ft
Apsiniaukę ne aukštis 8000 ft

METAR: SBCC 211800Z 34008KT 310V020 9999 BKN020 OVC080 25/20 Q1012

Laikas: 20:22 (23:22 UTC)


TAF: trūkstamas

Orai ataskaitas ir orų prognozės (METAR, TAF).

turimą stotys yra geltonos ir raudonos taškus žemėlapyje.

Perkelti pele per norėdami pamatyti stoties vardą.

Tada spustelėkite, norėdami matyti oro stebėjimo ir prognozės.

Norėdami pakeisti žemėlapį: spustelėkite ant žalios mygtukų su juodo kryžiaus žemyn,; žalią mygtuką su brūkšneliu, jei norite nutolinti; arba žalių rodyklių gretimoms žemėlapius.


METAR-TAF: